sensor_id;sensor_type;location;lat;lon;timestamp;P1;durP1;ratioP1;P2;durP2;ratioP2
75408;SDS011;63979;55.644;37.734;2024-01-25T00:03:17;15.40;;;7.10;;
75408;SDS011;63979;55.644;37.734;2024-01-25T00:08:18;15.77;;;5.90;;
75408;SDS011;63979;55.644;37.734;2024-01-25T00:13:18;14.63;;;7.53;;
75408;SDS011;63979;55.644;37.734;2024-01-25T00:18:19;17.33;;;8.05;;
75408;SDS011;63979;55.644;37.734;2024-01-25T00:23:20;15.80;;;7.82;;
75408;SDS011;63979;55.644;37.734;2024-01-25T00:28:21;11.48;;;6.80;;
75408;SDS011;63979;55.644;37.734;2024-01-25T00:33:22;13.52;;;6.15;;
75408;SDS011;63979;55.644;37.734;2024-01-25T00:38:22;15.10;;;6.15;;
75408;SDS011;63979;55.644;37.734;2024-01-25T00:43:24;11.85;;;6.25;;
75408;SDS011;63979;55.644;37.734;2024-01-25T00:48:25;18.30;;;7.38;;
75408;SDS011;63979;55.644;37.734;2024-01-25T00:53:26;17.05;;;8.48;;
75408;SDS011;63979;55.644;37.734;2024-01-25T00:58:27;15.30;;;7.40;;
75408;SDS011;63979;55.644;37.734;2024-01-25T01:03:28;12.77;;;5.97;;
75408;SDS011;63979;55.644;37.734;2024-01-25T01:08:29;14.75;;;5.85;;
75408;SDS011;63979;55.644;37.734;2024-01-25T01:13:30;16.65;;;7.80;;
75408;SDS011;63979;55.644;37.734;2024-01-25T01:18:31;9.85;;;5.00;;
75408;SDS011;63979;55.644;37.734;2024-01-25T01:23:32;12.95;;;4.95;;
75408;SDS011;63979;55.644;37.734;2024-01-25T01:28:33;17.42;;;6.80;;
75408;SDS011;63979;55.644;37.734;2024-01-25T01:33:33;15.60;;;7.68;;
75408;SDS011;63979;55.644;37.734;2024-01-25T01:38:34;13.02;;;6.82;;
75408;SDS011;63979;55.644;37.734;2024-01-25T01:43:35;14.65;;;6.88;;
75408;SDS011;63979;55.644;37.734;2024-01-25T01:48:37;14.15;;;6.50;;
75408;SDS011;63979;55.644;37.734;2024-01-25T01:53:39;17.92;;;6.57;;
75408;SDS011;63979;55.644;37.734;2024-01-25T01:58:40;10.63;;;5.90;;
75408;SDS011;63979;55.644;37.734;2024-01-25T02:03:42;10.80;;;6.03;;
75408;SDS011;63979;55.644;37.734;2024-01-25T02:08:43;14.60;;;7.38;;
75408;SDS011;63979;55.644;37.734;2024-01-25T02:13:44;10.98;;;5.63;;
75408;SDS011;63979;55.644;37.734;2024-01-25T02:18:45;15.07;;;6.05;;
75408;SDS011;63979;55.644;37.734;2024-01-25T02:23:47;13.23;;;6.45;;
75408;SDS011;63979;55.644;37.734;2024-01-25T02:28:48;14.52;;;6.93;;
75408;SDS011;63979;55.644;37.734;2024-01-25T02:33:49;10.18;;;5.57;;
75408;SDS011;63979;55.644;37.734;2024-01-25T02:38:49;13.32;;;6.00;;
75408;SDS011;63979;55.644;37.734;2024-01-25T02:43:50;8.98;;;5.22;;
75408;SDS011;63979;55.644;37.734;2024-01-25T02:48:51;9.95;;;5.90;;
75408;SDS011;63979;55.644;37.734;2024-01-25T02:53:52;15.23;;;7.63;;
75408;SDS011;63979;55.644;37.734;2024-01-25T02:58:52;17.00;;;7.35;;
75408;SDS011;63979;55.644;37.734;2024-01-25T03:03:53;18.77;;;8.73;;
75408;SDS011;63979;55.644;37.734;2024-01-25T03:08:54;14.40;;;8.52;;
75408;SDS011;63979;55.644;37.734;2024-01-25T03:13:55;19.58;;;6.70;;
75408;SDS011;63979;55.644;37.734;2024-01-25T03:18:57;15.45;;;6.20;;
75408;SDS011;63979;55.644;37.734;2024-01-25T03:23:58;13.35;;;5.95;;
75408;SDS011;63979;55.644;37.734;2024-01-25T03:28:59;11.63;;;6.25;;
75408;SDS011;63979;55.644;37.734;2024-01-25T03:34:00;11.50;;;5.85;;
75408;SDS011;63979;55.644;37.734;2024-01-25T03:39:01;8.90;;;5.47;;
75408;SDS011;63979;55.644;37.734;2024-01-25T03:44:03;13.82;;;5.85;;
75408;SDS011;63979;55.644;37.734;2024-01-25T03:49:04;16.98;;;7.38;;
75408;SDS011;63979;55.644;37.734;2024-01-25T03:54:05;8.57;;;4.60;;
75408;SDS011;63979;55.644;37.734;2024-01-25T03:59:05;10.27;;;4.50;;
75408;SDS011;63979;55.644;37.734;2024-01-25T04:04:10;14.18;;;7.57;;
75408;SDS011;63979;55.644;37.734;2024-01-25T04:09:15;13.50;;;5.85;;
75408;SDS011;63979;55.644;37.734;2024-01-25T04:14:17;10.95;;;5.45;;
75408;SDS011;63979;55.644;37.734;2024-01-25T04:19:17;16.00;;;7.03;;
75408;SDS011;63979;55.644;37.734;2024-01-25T04:24:18;12.27;;;5.22;;
75408;SDS011;63979;55.644;37.734;2024-01-25T04:29:19;14.25;;;6.65;;
75408;SDS011;63979;55.644;37.734;2024-01-25T04:34:20;11.57;;;4.82;;
75408;SDS011;63979;55.644;37.734;2024-01-25T04:39:21;13.52;;;6.82;;
75408;SDS011;63979;55.644;37.734;2024-01-25T04:44:22;10.88;;;5.03;;
75408;SDS011;63979;55.644;37.734;2024-01-25T04:49:23;11.95;;;6.07;;
75408;SDS011;63979;55.644;37.734;2024-01-25T04:54:24;11.95;;;6.45;;
75408;SDS011;63979;55.644;37.734;2024-01-25T04:59:25;12.43;;;5.72;;
75408;SDS011;63979;55.644;37.734;2024-01-25T05:04:27;14.60;;;6.78;;
75408;SDS011;63979;55.644;37.734;2024-01-25T05:09:29;12.63;;;6.82;;
75408;SDS011;63979;55.644;37.734;2024-01-25T05:14:30;18.50;;;10.13;;
75408;SDS011;63979;55.644;37.734;2024-01-25T05:19:31;17.02;;;7.53;;
75408;SDS011;63979;55.644;37.734;2024-01-25T05:24:32;16.95;;;7.90;;
75408;SDS011;63979;55.644;37.734;2024-01-25T05:29:34;13.43;;;7.47;;
75408;SDS011;63979;55.644;37.734;2024-01-25T05:34:35;15.40;;;7.03;;
75408;SDS011;63979;55.644;37.734;2024-01-25T05:39:36;20.70;;;8.00;;
75408;SDS011;63979;55.644;37.734;2024-01-25T05:44:37;19.90;;;9.18;;
75408;SDS011;63979;55.644;37.734;2024-01-25T05:49:38;17.10;;;9.05;;
75408;SDS011;63979;55.644;37.734;2024-01-25T05:54:39;12.48;;;7.47;;
75408;SDS011;63979;55.644;37.734;2024-01-25T05:59:40;15.65;;;7.28;;
75408;SDS011;63979;55.644;37.734;2024-01-25T06:04:41;18.40;;;10.38;;
75408;SDS011;63979;55.644;37.734;2024-01-25T06:09:41;17.20;;;7.78;;
75408;SDS011;63979;55.644;37.734;2024-01-25T06:14:42;13.95;;;7.78;;
75408;SDS011;63979;55.644;37.734;2024-01-25T06:19:43;10.88;;;5.68;;
75408;SDS011;63979;55.644;37.734;2024-01-25T06:24:44;9.55;;;5.25;;
75408;SDS011;63979;55.644;37.734;2024-01-25T06:29:44;12.85;;;5.93;;
75408;SDS011;63979;55.644;37.734;2024-01-25T06:34:45;9.05;;;6.57;;
75408;SDS011;63979;55.644;37.734;2024-01-25T06:39:46;9.35;;;6.45;;
75408;SDS011;63979;55.644;37.734;2024-01-25T06:44:47;11.23;;;6.00;;
75408;SDS011;63979;55.644;37.734;2024-01-25T06:49:48;10.73;;;5.65;;
75408;SDS011;63979;55.644;37.734;2024-01-25T06:54:51;11.35;;;6.35;;
75408;SDS011;63979;55.644;37.734;2024-01-25T06:59:52;15.90;;;6.22;;
75408;SDS011;63979;55.644;37.734;2024-01-25T07:04:53;10.88;;;5.22;;
75408;SDS011;63979;55.644;37.734;2024-01-25T07:09:55;13.07;;;6.55;;
75408;SDS011;63979;55.644;37.734;2024-01-25T07:14:56;8.85;;;5.53;;
75408;SDS011;63979;55.644;37.734;2024-01-25T07:19:57;10.32;;;4.82;;
75408;SDS011;63979;55.644;37.734;2024-01-25T07:24:57;13.38;;;6.60;;
75408;SDS011;63979;55.644;37.734;2024-01-25T07:29:58;9.60;;;5.32;;
75408;SDS011;63979;55.644;37.734;2024-01-25T07:34:59;13.63;;;7.25;;
75408;SDS011;63979;55.644;37.734;2024-01-25T07:40:00;11.65;;;6.32;;
75408;SDS011;63979;55.644;37.734;2024-01-25T07:45:01;13.90;;;6.18;;
75408;SDS011;63979;55.644;37.734;2024-01-25T07:50:04;10.02;;;4.53;;
75408;SDS011;63979;55.644;37.734;2024-01-25T07:55:05;7.38;;;5.78;;
75408;SDS011;63979;55.644;37.734;2024-01-25T08:00:06;11.07;;;6.57;;
75408;SDS011;63979;55.644;37.734;2024-01-25T08:05:09;9.70;;;4.85;;
75408;SDS011;63979;55.644;37.734;2024-01-25T08:10:09;9.50;;;4.90;;
75408;SDS011;63979;55.644;37.734;2024-01-25T08:15:10;11.63;;;4.90;;
75408;SDS011;63979;55.644;37.734;2024-01-25T08:20:12;10.80;;;5.15;;
75408;SDS011;63979;55.644;37.734;2024-01-25T08:25:16;9.65;;;5.13;;
75408;SDS011;63979;55.644;37.734;2024-01-25T08:30:18;8.23;;;4.18;;
75408;SDS011;63979;55.644;37.734;2024-01-25T08:35:19;10.98;;;6.32;;
75408;SDS011;63979;55.644;37.734;2024-01-25T08:40:20;8.10;;;3.97;;
75408;SDS011;63979;55.644;37.734;2024-01-25T08:45:21;13.25;;;6.72;;
75408;SDS011;63979;55.644;37.734;2024-01-25T08:50:21;8.43;;;4.53;;
75408;SDS011;63979;55.644;37.734;2024-01-25T08:55:22;7.68;;;4.15;;
75408;SDS011;63979;55.644;37.734;2024-01-25T09:00:23;8.20;;;4.13;;
75408;SDS011;63979;55.644;37.734;2024-01-25T09:05:24;9.73;;;4.45;;
75408;SDS011;63979;55.644;37.734;2024-01-25T09:10:28;7.45;;;4.45;;
75408;SDS011;63979;55.644;37.734;2024-01-25T09:15:29;10.95;;;5.53;;
75408;SDS011;63979;55.644;37.734;2024-01-25T09:20:30;7.88;;;4.55;;
75408;SDS011;63979;55.644;37.734;2024-01-25T09:25:31;9.85;;;4.57;;
75408;SDS011;63979;55.644;37.734;2024-01-25T09:30:32;11.13;;;4.60;;
75408;SDS011;63979;55.644;37.734;2024-01-25T09:35:33;8.60;;;4.38;;
75408;SDS011;63979;55.644;37.734;2024-01-25T09:40:37;10.35;;;5.10;;
75408;SDS011;63979;55.644;37.734;2024-01-25T09:45:38;11.57;;;5.45;;
75408;SDS011;63979;55.644;37.734;2024-01-25T09:50:41;12.45;;;4.90;;
75408;SDS011;63979;55.644;37.734;2024-01-25T09:55:42;8.63;;;4.05;;
75408;SDS011;63979;55.644;37.734;2024-01-25T10:00:47;11.00;;;5.60;;
75408;SDS011;63979;55.644;37.734;2024-01-25T10:05:50;8.25;;;3.70;;
75408;SDS011;63979;55.644;37.734;2024-01-25T10:10:51;10.48;;;5.93;;
75408;SDS011;63979;55.644;37.734;2024-01-25T10:15:53;10.85;;;5.80;;
75408;SDS011;63979;55.644;37.734;2024-01-25T10:20:55;7.07;;;3.63;;
75408;SDS011;63979;55.644;37.734;2024-01-25T10:25:56;8.10;;;4.72;;
75408;SDS011;63979;55.644;37.734;2024-01-25T10:30:57;9.50;;;5.13;;
75408;SDS011;63979;55.644;37.734;2024-01-25T10:36:01;8.05;;;4.80;;
75408;SDS011;63979;55.644;37.734;2024-01-25T10:41:03;9.63;;;4.40;;
75408;SDS011;63979;55.644;37.734;2024-01-25T10:46:05;7.90;;;4.55;;
75408;SDS011;63979;55.644;37.734;2024-01-25T10:51:07;9.70;;;5.22;;
75408;SDS011;63979;55.644;37.734;2024-01-25T10:56:10;11.90;;;5.80;;
75408;SDS011;63979;55.644;37.734;2024-01-25T11:01:12;7.60;;;4.65;;
75408;SDS011;63979;55.644;37.734;2024-01-25T11:06:13;9.30;;;4.72;;
75408;SDS011;63979;55.644;37.734;2024-01-25T11:11:15;9.52;;;4.88;;
75408;SDS011;63979;55.644;37.734;2024-01-25T11:16:17;11.77;;;5.70;;
75408;SDS011;63979;55.644;37.734;2024-01-25T11:21:25;10.52;;;6.00;;
75408;SDS011;63979;55.644;37.734;2024-01-25T11:26:32;11.52;;;6.35;;
75408;SDS011;63979;55.644;37.734;2024-01-25T11:31:33;10.85;;;5.95;;
75408;SDS011;63979;55.644;37.734;2024-01-25T11:36:34;10.95;;;5.90;;
75408;SDS011;63979;55.644;37.734;2024-01-25T11:41:35;7.53;;;3.70;;
75408;SDS011;63979;55.644;37.734;2024-01-25T11:46:36;12.25;;;6.30;;
75408;SDS011;63979;55.644;37.734;2024-01-25T11:51:38;10.15;;;5.03;;
75408;SDS011;63979;55.644;37.734;2024-01-25T11:56:39;12.63;;;6.90;;
75408;SDS011;63979;55.644;37.734;2024-01-25T12:01:41;11.95;;;6.50;;
75408;SDS011;63979;55.644;37.734;2024-01-25T12:06:42;10.52;;;5.50;;
75408;SDS011;63979;55.644;37.734;2024-01-25T12:11:43;11.88;;;6.13;;
75408;SDS011;63979;55.644;37.734;2024-01-25T12:16:44;13.27;;;5.43;;
75408;SDS011;63979;55.644;37.734;2024-01-25T12:21:44;12.50;;;6.60;;
75408;SDS011;63979;55.644;37.734;2024-01-25T12:26:45;11.90;;;6.35;;
75408;SDS011;63979;55.644;37.734;2024-01-25T12:31:48;12.05;;;6.38;;
75408;SDS011;63979;55.644;37.734;2024-01-25T12:36:49;12.20;;;5.72;;
75408;SDS011;63979;55.644;37.734;2024-01-25T12:41:50;10.27;;;5.63;;
75408;SDS011;63979;55.644;37.734;2024-01-25T12:46:52;11.23;;;5.47;;
75408;SDS011;63979;55.644;37.734;2024-01-25T12:51:52;9.02;;;5.53;;
75408;SDS011;63979;55.644;37.734;2024-01-25T12:56:53;16.02;;;7.95;;
75408;SDS011;63979;55.644;37.734;2024-01-25T13:01:55;12.30;;;6.70;;
75408;SDS011;63979;55.644;37.734;2024-01-25T13:06:57;11.25;;;6.88;;
75408;SDS011;63979;55.644;37.734;2024-01-25T13:11:58;13.55;;;6.72;;
75408;SDS011;63979;55.644;37.734;2024-01-25T13:16:59;14.18;;;7.32;;
75408;SDS011;63979;55.644;37.734;2024-01-25T13:22:00;12.77;;;6.65;;
75408;SDS011;63979;55.644;37.734;2024-01-25T13:27:01;14.63;;;7.55;;
75408;SDS011;63979;55.644;37.734;2024-01-25T13:32:02;10.95;;;6.35;;
75408;SDS011;63979;55.644;37.734;2024-01-25T13:37:04;16.02;;;7.43;;
75408;SDS011;63979;55.644;37.734;2024-01-25T13:42:04;18.08;;;7.28;;
75408;SDS011;63979;55.644;37.734;2024-01-25T13:47:05;15.77;;;8.40;;
75408;SDS011;63979;55.644;37.734;2024-01-25T13:52:06;16.33;;;11.02;;
75408;SDS011;63979;55.644;37.734;2024-01-25T13:57:17;19.70;;;8.73;;
75408;SDS011;63979;55.644;37.734;2024-01-25T14:02:20;9.02;;;5.35;;
75408;SDS011;63979;55.644;37.734;2024-01-25T14:07:21;14.07;;;7.65;;
75408;SDS011;63979;55.644;37.734;2024-01-25T14:12:22;16.20;;;6.93;;
75408;SDS011;63979;55.644;37.734;2024-01-25T14:17:24;14.98;;;8.27;;
75408;SDS011;63979;55.644;37.734;2024-01-25T14:22:25;16.27;;;7.57;;
75408;SDS011;63979;55.644;37.734;2024-01-25T14:27:25;19.45;;;10.15;;
75408;SDS011;63979;55.644;37.734;2024-01-25T14:32:27;14.48;;;8.30;;
75408;SDS011;63979;55.644;37.734;2024-01-25T14:37:27;14.68;;;7.25;;
75408;SDS011;63979;55.644;37.734;2024-01-25T14:42:30;24.83;;;11.60;;
75408;SDS011;63979;55.644;37.734;2024-01-25T14:47:31;17.83;;;8.25;;
75408;SDS011;63979;55.644;37.734;2024-01-25T14:52:32;13.48;;;7.25;;
75408;SDS011;63979;55.644;37.734;2024-01-25T14:57:39;20.25;;;11.27;;
75408;SDS011;63979;55.644;37.734;2024-01-25T15:02:40;13.98;;;7.05;;
75408;SDS011;63979;55.644;37.734;2024-01-25T15:07:42;17.95;;;9.73;;
75408;SDS011;63979;55.644;37.734;2024-01-25T15:12:43;21.48;;;9.75;;
75408;SDS011;63979;55.644;37.734;2024-01-25T15:17:44;19.02;;;9.25;;
75408;SDS011;63979;55.644;37.734;2024-01-25T15:22:46;20.25;;;10.65;;
75408;SDS011;63979;55.644;37.734;2024-01-25T15:27:47;17.75;;;9.65;;
75408;SDS011;63979;55.644;37.734;2024-01-25T15:32:48;16.98;;;7.70;;
75408;SDS011;63979;55.644;37.734;2024-01-25T15:37:49;14.90;;;8.43;;
75408;SDS011;63979;55.644;37.734;2024-01-25T15:42:53;21.25;;;10.93;;
75408;SDS011;63979;55.644;37.734;2024-01-25T15:47:57;20.27;;;9.52;;
75408;SDS011;63979;55.644;37.734;2024-01-25T15:52:58;19.13;;;8.20;;
75408;SDS011;63979;55.644;37.734;2024-01-25T15:57:59;17.50;;;9.27;;
75408;SDS011;63979;55.644;37.734;2024-01-25T16:03:00;28.80;;;13.82;;
75408;SDS011;63979;55.644;37.734;2024-01-25T16:08:02;13.52;;;7.47;;
75408;SDS011;63979;55.644;37.734;2024-01-25T16:13:03;19.42;;;9.02;;
75408;SDS011;63979;55.644;37.734;2024-01-25T16:18:05;17.27;;;8.45;;
75408;SDS011;63979;55.644;37.734;2024-01-25T16:23:06;18.67;;;9.43;;
75408;SDS011;63979;55.644;37.734;2024-01-25T16:28:07;17.98;;;8.73;;
75408;SDS011;63979;55.644;37.734;2024-01-25T16:33:08;19.05;;;9.57;;
75408;SDS011;63979;55.644;37.734;2024-01-25T16:38:08;21.90;;;9.25;;
75408;SDS011;63979;55.644;37.734;2024-01-25T16:43:12;21.00;;;9.73;;
75408;SDS011;63979;55.644;37.734;2024-01-25T16:48:16;20.38;;;10.50;;
75408;SDS011;63979;55.644;37.734;2024-01-25T16:53:17;20.58;;;9.48;;
75408;SDS011;63979;55.644;37.734;2024-01-25T16:58:18;22.98;;;9.63;;
75408;SDS011;63979;55.644;37.734;2024-01-25T17:03:19;19.73;;;9.90;;
75408;SDS011;63979;55.644;37.734;2024-01-25T17:08:20;19.52;;;9.30;;
75408;SDS011;63979;55.644;37.734;2024-01-25T17:13:21;21.05;;;9.65;;
75408;SDS011;63979;55.644;37.734;2024-01-25T17:18:22;21.17;;;9.88;;
75408;SDS011;63979;55.644;37.734;2024-01-25T17:23:24;15.45;;;7.72;;
75408;SDS011;63979;55.644;37.734;2024-01-25T17:28:25;22.58;;;10.75;;
75408;SDS011;63979;55.644;37.734;2024-01-25T17:33:27;18.33;;;10.05;;
75408;SDS011;63979;55.644;37.734;2024-01-25T17:38:28;24.58;;;11.18;;
75408;SDS011;63979;55.644;37.734;2024-01-25T17:43:28;22.05;;;11.10;;
75408;SDS011;63979;55.644;37.734;2024-01-25T17:48:29;26.05;;;11.48;;
75408;SDS011;63979;55.644;37.734;2024-01-25T17:53:30;23.50;;;10.55;;
75408;SDS011;63979;55.644;37.734;2024-01-25T17:58:31;22.23;;;9.45;;
75408;SDS011;63979;55.644;37.734;2024-01-25T18:03:32;24.58;;;11.18;;
75408;SDS011;63979;55.644;37.734;2024-01-25T18:08:33;24.25;;;9.63;;
75408;SDS011;63979;55.644;37.734;2024-01-25T18:13:33;24.70;;;11.10;;
75408;SDS011;63979;55.644;37.734;2024-01-25T18:18:34;20.52;;;10.38;;
75408;SDS011;63979;55.644;37.734;2024-01-25T18:23:36;17.90;;;9.40;;
75408;SDS011;63979;55.644;37.734;2024-01-25T18:28:37;19.13;;;8.50;;
75408;SDS011;63979;55.644;37.734;2024-01-25T18:33:37;24.30;;;9.60;;
75408;SDS011;63979;55.644;37.734;2024-01-25T18:38:39;17.77;;;7.53;;
75408;SDS011;63979;55.644;37.734;2024-01-25T18:43:40;21.75;;;11.23;;
75408;SDS011;63979;55.644;37.734;2024-01-25T18:48:42;18.67;;;8.68;;
75408;SDS011;63979;55.644;37.734;2024-01-25T18:53:43;16.88;;;8.50;;
75408;SDS011;63979;55.644;37.734;2024-01-25T18:58:44;24.13;;;10.10;;
75408;SDS011;63979;55.644;37.734;2024-01-25T19:03:51;19.83;;;10.48;;
75408;SDS011;63979;55.644;37.734;2024-01-25T19:08:54;25.75;;;11.35;;
75408;SDS011;63979;55.644;37.734;2024-01-25T19:13:55;18.80;;;8.88;;
75408;SDS011;63979;55.644;37.734;2024-01-25T19:18:56;17.02;;;7.95;;
75408;SDS011;63979;55.644;37.734;2024-01-25T19:23:57;23.30;;;10.48;;
75408;SDS011;63979;55.644;37.734;2024-01-25T19:28:58;22.17;;;9.73;;
75408;SDS011;63979;55.644;37.734;2024-01-25T19:34:00;24.05;;;11.23;;
75408;SDS011;63979;55.644;37.734;2024-01-25T19:39:21;17.65;;;8.80;;
75408;SDS011;63979;55.644;37.734;2024-01-25T19:44:22;21.58;;;9.80;;
75408;SDS011;63979;55.644;37.734;2024-01-25T19:49:25;21.20;;;9.02;;
75408;SDS011;63979;55.644;37.734;2024-01-25T19:54:26;18.63;;;9.48;;
75408;SDS011;63979;55.644;37.734;2024-01-25T19:59:28;19.30;;;9.45;;
75408;SDS011;63979;55.644;37.734;2024-01-25T20:04:29;20.92;;;9.07;;
75408;SDS011;63979;55.644;37.734;2024-01-25T20:09:32;24.88;;;9.68;;
75408;SDS011;63979;55.644;37.734;2024-01-25T20:14:33;28.58;;;11.65;;
75408;SDS011;63979;55.644;37.734;2024-01-25T20:19:34;19.58;;;9.88;;
75408;SDS011;63979;55.644;37.734;2024-01-25T20:24:36;24.95;;;11.60;;
75408;SDS011;63979;55.644;37.734;2024-01-25T20:29:38;25.17;;;10.95;;
75408;SDS011;63979;55.644;37.734;2024-01-25T20:34:39;21.77;;;10.90;;
75408;SDS011;63979;55.644;37.734;2024-01-25T20:39:40;25.55;;;11.73;;
75408;SDS011;63979;55.644;37.734;2024-01-25T20:44:41;18.27;;;9.25;;
75408;SDS011;63979;55.644;37.734;2024-01-25T20:49:42;19.40;;;9.20;;
75408;SDS011;63979;55.644;37.734;2024-01-25T20:54:42;22.88;;;11.63;;
75408;SDS011;63979;55.644;37.734;2024-01-25T20:59:43;22.33;;;10.35;;
75408;SDS011;63979;55.644;37.734;2024-01-25T21:04:45;22.48;;;10.68;;
75408;SDS011;63979;55.644;37.734;2024-01-25T21:09:46;22.13;;;12.18;;
75408;SDS011;63979;55.644;37.734;2024-01-25T21:14:47;21.73;;;12.05;;
75408;SDS011;63979;55.644;37.734;2024-01-25T21:19:48;19.67;;;9.48;;
75408;SDS011;63979;55.644;37.734;2024-01-25T21:24:50;25.63;;;13.52;;
75408;SDS011;63979;55.644;37.734;2024-01-25T21:29:56;20.67;;;12.52;;
75408;SDS011;63979;55.644;37.734;2024-01-25T21:34:57;23.30;;;11.45;;
75408;SDS011;63979;55.644;37.734;2024-01-25T21:39:58;25.42;;;11.40;;
75408;SDS011;63979;55.644;37.734;2024-01-25T21:44:59;25.02;;;10.90;;
75408;SDS011;63979;55.644;37.734;2024-01-25T21:50:00;22.00;;;12.90;;
75408;SDS011;63979;55.644;37.734;2024-01-25T21:55:05;20.55;;;10.45;;
75408;SDS011;63979;55.644;37.734;2024-01-25T22:00:10;20.13;;;10.35;;
75408;SDS011;63979;55.644;37.734;2024-01-25T22:05:12;18.55;;;10.32;;
75408;SDS011;63979;55.644;37.734;2024-01-25T22:10:13;25.38;;;11.05;;
75408;SDS011;63979;55.644;37.734;2024-01-25T22:15:14;17.45;;;8.88;;
75408;SDS011;63979;55.644;37.734;2024-01-25T22:20:16;15.77;;;9.32;;
75408;SDS011;63979;55.644;37.734;2024-01-25T22:25:18;22.00;;;9.68;;
75408;SDS011;63979;55.644;37.734;2024-01-25T22:30:20;14.38;;;8.40;;
75408;SDS011;63979;55.644;37.734;2024-01-25T22:35:21;15.00;;;8.13;;
75408;SDS011;63979;55.644;37.734;2024-01-25T22:40:23;19.10;;;9.65;;
75408;SDS011;63979;55.644;37.734;2024-01-25T22:45:25;18.27;;;9.98;;
75408;SDS011;63979;55.644;37.734;2024-01-25T22:50:26;16.67;;;9.38;;
75408;SDS011;63979;55.644;37.734;2024-01-25T22:55:26;21.63;;;10.40;;
75408;SDS011;63979;55.644;37.734;2024-01-25T23:00:28;17.08;;;10.43;;
75408;SDS011;63979;55.644;37.734;2024-01-25T23:05:32;19.70;;;10.70;;
75408;SDS011;63979;55.644;37.734;2024-01-25T23:10:36;19.00;;;10.05;;
75408;SDS011;63979;55.644;37.734;2024-01-25T23:15:37;19.60;;;9.10;;
75408;SDS011;63979;55.644;37.734;2024-01-25T23:20:38;19.65;;;9.75;;
75408;SDS011;63979;55.644;37.734;2024-01-25T23:25:39;21.08;;;10.25;;
75408;SDS011;63979;55.644;37.734;2024-01-25T23:30:41;17.95;;;9.90;;
75408;SDS011;63979;55.644;37.734;2024-01-25T23:35:48;18.60;;;9.73;;
75408;SDS011;63979;55.644;37.734;2024-01-25T23:40:55;14.15;;;7.38;;
75408;SDS011;63979;55.644;37.734;2024-01-25T23:45:56;20.45;;;10.18;;
75408;SDS011;63979;55.644;37.734;2024-01-25T23:50:56;16.63;;;8.48;;
75408;SDS011;63979;55.644;37.734;2024-01-25T23:55:57;21.90;;;9.75;;
